Time;durP1;ratioP1;P1;durP2;ratioP2;P2;SDS_P1;SDS_P2;PMS_P1;PMS_P2;Temp;Humidity;BMP_temperature;BMP_pressure;BME280_temperature;BME280_humidity;BME280_pressure;Samples;Min_cycle;Max_cycle;Signal;HPM_P1;HPM_P2
2023/01/30 00:01:39;;;;;;;42.53;23.55;;;;;;;6.00;49.82;101318.91;7401024;19;20002;-70
2023/01/30 00:04:05;;;;;;;42.53;24.52;;;;;;;6.06;49.71;101304.16;7397841;19;19999;-71
2023/01/30 00:06:30;;;;;;;45.47;24.27;;;;;;;5.97;50.17;101300.53;7400643;19;20090;-71
2023/01/30 00:08:56;;;;;;;42.45;23.92;;;;;;;5.94;50.45;101302.75;7397819;19;20519;-68
2023/01/30 00:11:22;;;;;;;45.65;25.15;;;;;;;5.78;50.89;101297.88;7401405;19;20119;-70
2023/01/30 00:13:49;;;;;;;46.22;25.90;;;;;;;5.89;50.64;101304.72;7398873;19;19994;-70
2023/01/30 00:16:16;;;;;;;47.20;25.50;;;;;;;5.98;50.59;101308.38;7401241;19;20033;-71
2023/01/30 00:18:42;;;;;;;42.90;24.15;;;;;;;6.04;50.56;101287.41;7400683;19;19999;-72
2023/01/30 00:21:11;;;;;;;41.42;23.33;;;;;;;6.01;50.65;101282.56;7402031;19;20010;-71
2023/01/30 00:23:37;;;;;;;41.58;24.13;;;;;;;6.09;50.49;101260.19;7399737;19;19990;-71
2023/01/30 00:26:05;;;;;;;42.50;24.17;;;;;;;6.19;50.57;101264.63;7400462;19;20459;-73
2023/01/30 00:28:31;;;;;;;46.53;24.60;;;;;;;6.17;50.81;101248.66;7398239;19;20107;-73
2023/01/30 00:30:57;;;;;;;43.40;25.38;;;;;;;6.12;50.86;101240.63;7400052;19;20066;-73
2023/01/30 00:33:25;;;;;;;41.95;24.42;;;;;;;6.26;50.60;101243.34;7398736;19;20477;-73
2023/01/30 00:35:52;;;;;;;40.17;24.00;;;;;;;6.13;51.14;101223.28;7397750;19;20002;-74
2023/01/30 00:38:19;;;;;;;42.75;25.17;;;;;;;6.18;50.71;101225.88;7398917;19;19991;-75
2023/01/30 00:40:46;;;;;;;40.50;24.13;;;;;;;6.14;51.17;101200.47;7399450;19;20006;-75
2023/01/30 00:48:45;;;;;;;41.55;24.60;;;;;;;6.18;51.56;101184.44;7397003;19;20003;-75
2023/01/30 00:51:10;;;;;;;44.65;24.38;;;;;;;6.25;51.34;101185.63;7399625;19;19997;-74
2023/01/30 00:53:36;;;;;;;48.13;25.35;;;;;;;6.27;51.29;101167.13;7398769;19;20005;-78
2023/01/30 00:56:02;;;;;;;45.80;26.00;;;;;;;6.17;51.62;101164.66;7399186;19;20001;-78
2023/01/30 00:58:28;;;;;;;48.03;25.95;;;;;;;6.23;51.57;101157.22;7398968;19;19987;-73
2023/01/30 01:00:55;;;;;;;46.33;25.75;;;;;;;6.29;51.59;101150.56;7399556;19;20010;-78
2023/01/30 01:03:21;;;;;;;46.08;25.98;;;;;;;6.27;51.53;101137.31;7399031;19;19999;-81
2023/01/30 01:05:47;;;;;;;44.08;24.98;;;;;;;6.33;51.49;101135.31;7399591;19;20036;-74
2023/01/30 01:08:14;;;;;;;44.75;24.15;;;;;;;6.31;51.66;101132.91;7397589;19;20014;-76
2023/01/30 01:10:39;;;;;;;48.47;25.42;;;;;;;6.43;51.49;101126.16;7399104;19;20066;-75
2023/01/30 01:13:05;;;;;;;43.15;24.05;;;;;;;6.33;51.66;101119.06;7393228;19;20401;-72
2023/01/30 01:15:32;;;;;;;44.55;24.63;;;;;;;6.23;51.97;101111.94;7393671;19;19999;-75
2023/01/30 01:17:58;;;;;;;42.10;22.92;;;;;;;6.41;51.52;101093.94;7393912;19;19999;-78
2023/01/30 01:20:24;;;;;;;41.13;23.17;;;;;;;6.45;51.77;101115.81;7391912;19;20107;-76
2023/01/30 01:22:54;;;;;;;47.40;25.17;;;;;;;6.52;51.49;101082.84;7394410;19;20030;-70
2023/01/30 01:25:22;;;;;;;43.80;23.80;;;;;;;6.36;52.12;101085.09;7392829;19;20005;-75
2023/01/30 01:27:48;;;;;;;44.88;23.85;;;;;;;6.26;52.27;101092.34;7393747;19;20010;-75
2023/01/30 01:30:14;;;;;;;39.88;23.67;;;;;;;6.53;51.86;101081.72;7394364;19;20095;-74
2023/01/30 01:32:41;;;;;;;42.33;25.20;;;;;;;6.34;52.30;101060.19;7394416;19;20002;-74
2023/01/30 01:35:07;;;;;;;43.78;24.75;;;;;;;6.40;52.12;101053.56;7393183;19;20014;-73
2023/01/30 01:37:33;;;;;;;44.55;24.05;;;;;;;6.69;51.48;101055.84;7393517;19;20027;-72
2023/01/30 01:42:43;;;;;;;;;;;;;;;6.31;53.45;101045.38;7394452;19;19990;-74
2023/01/30 01:45:11;;;;;;;44.22;23.60;;;;;;;6.40;52.53;101040.81;7392544;19;20423;-74
2023/01/30 01:47:41;;;;;;;42.85;23.10;;;;;;;6.68;51.99;101043.41;7392449;19;20037;-73
2023/01/30 01:50:29;;;;;;;39.75;24.00;;;;;;;6.66;52.38;101045.59;7394290;19;20002;-74
2023/01/30 01:53:00;;;;;;;44.20;23.13;;;;;;;6.67;52.12;101042.59;7391449;19;20069;-73
2023/01/30 01:55:34;;;;;;;42.15;23.08;;;;;;;6.78;51.88;101031.50;7393891;19;20010;-74
2023/01/30 01:58:14;;;;;;;42.30;23.08;;;;;;;6.83;52.09;101040.31;7391300;19;20511;-75
2023/01/30 02:00:40;;;;;;;40.47;23.08;;;;;;;6.78;52.47;101036.94;7393563;19;19999;-75
2023/01/30 02:03:11;;;;;;;42.67;23.33;;;;;;;6.70;52.81;101045.81;7392302;19;20507;-72
2023/01/30 02:05:42;;;;;;;39.75;22.58;;;;;;;6.54;53.58;101031.81;7393645;19;20016;-72
2023/01/30 02:08:16;;;;;;;39.30;22.67;;;;;;;6.72;52.94;101024.59;7392414;19;20006;-72
2023/01/30 02:11:00;;;;;;;45.40;23.30;;;;;;;6.72;53.67;101028.09;7392847;19;20076;-72
2023/01/30 02:13:27;;;;;;;40.80;22.40;;;;;;;6.87;53.21;101024.22;7391275;19;20006;-72
2023/01/30 02:15:56;;;;;;;42.33;23.05;;;;;;;6.73;53.49;100999.06;7391080;19;20091;-73
2023/01/30 02:18:23;;;;;;;39.00;22.73;;;;;;;6.75;53.46;101000.38;7390214;19;20002;-71
2023/01/30 02:21:10;;;;;;;41.28;21.20;;;;;;;6.77;53.35;101005.47;7393571;19;19999;-72
2023/01/30 02:23:54;;;;;;;39.17;21.33;;;;;;;6.70;53.63;100997.00;7393856;19;20002;-77
2023/01/30 02:26:37;;;;;;;33.75;20.30;;;;;;;6.80;53.48;100996.72;7395196;19;20010;-76
2023/01/30 02:29:16;;;;;;;35.72;20.25;;;;;;;6.94;53.18;100992.03;7392917;19;20009;-77
2023/01/30 02:32:04;;;;;;;32.28;19.75;;;;;;;6.91;53.82;100987.25;7394640;19;20034;-75
2023/01/30 02:34:43;;;;;;;32.03;19.48;;;;;;;6.92;53.33;100977.97;7392501;19;20011;-75
2023/01/30 02:37:31;;;;;;;36.55;20.23;;;;;;;6.76;54.67;100968.59;7390834;19;20475;-74
2023/01/30 02:39:57;;;;;;;35.55;19.05;;;;;;;6.87;53.82;100962.59;7392507;19;20006;-75
2023/01/30 02:42:33;;;;;;;28.60;18.40;;;;;;;6.77;54.07;100965.56;7391861;19;20018;-75
2023/01/30 02:45:33;;;;;;;29.75;17.77;;;;;;;6.61;55.16;100951.63;7389827;19;20333;-74
2023/01/30 02:48:03;;;;;;;29.33;17.27;;;;;;;6.81;53.95;100950.28;7390168;19;20739;-75
2023/01/30 02:50:42;;;;;;;29.92;17.65;;;;;;;6.98;53.65;100941.47;7392177;19;20096;-74
2023/01/30 02:53:08;;;;;;;28.52;17.73;;;;;;;6.89;53.64;100951.44;7391884;19;20002;-76
2023/01/30 02:55:35;;;;;;;29.27;17.35;;;;;;;6.75;54.41;100934.47;7391349;19;20010;-77
2023/01/30 02:58:03;;;;;;;30.33;17.42;;;;;;;6.90;53.84;100942.19;7394038;19;19998;-76
2023/01/30 03:01:07;;;;;;;29.52;17.00;;;;;;;6.82;54.25;100924.75;7392567;19;20089;-75
2023/01/30 03:03:42;;;;;;;29.95;16.30;;;;;;;6.90;54.26;100931.34;7387986;19;20486;-76
2023/01/30 03:06:33;;;;;;;27.25;17.20;;;;;;;7.09;54.06;100922.97;7391719;19;20011;-75
2023/01/30 03:09:06;;;;;;;26.00;16.42;;;;;;;7.14;53.39;100919.31;7392006;19;20022;-78
2023/01/30 03:11:46;;;;;;;30.13;16.27;;;;;;;7.14;53.78;100927.44;7393292;19;20010;-76
2023/01/30 03:14:27;;;;;;;24.90;15.25;;;;;;;7.18;53.56;100914.88;7393448;19;20365;-75
2023/01/30 03:16:57;;;;;;;25.63;14.80;;;;;;;7.21;53.30;100915.03;7393865;19;20006;-73
2023/01/30 03:19:23;;;;;;;24.73;15.07;;;;;;;7.26;53.11;100916.78;7393080;19;20019;-75
2023/01/30 03:21:48;;;;;;;24.83;14.55;;;;;;;7.11;53.71;100912.63;7393410;19;19999;-76
2023/01/30 03:24:15;;;;;;;24.05;14.60;;;;;;;7.04;53.93;100899.50;7391424;19;20017;-76
2023/01/30 03:26:58;;;;;;;22.45;13.95;;;;;;;6.94;54.63;100916.03;7391250;19;20027;-75
2023/01/30 03:29:24;;;;;;;23.27;14.02;;;;;;;7.01;54.40;100905.56;7386891;19;20454;-76
2023/01/30 03:31:50;;;;;;;24.08;13.73;;;;;;;7.22;53.89;100904.97;7390538;19;20070;-76
2023/01/30 03:34:15;;;;;;;22.23;13.30;;;;;;;7.12;54.21;100889.78;7387792;19;20491;-75
2023/01/30 03:36:41;;;;;;;22.23;12.38;;;;;;;7.06;54.11;100910.00;7387792;19;20003;-76
2023/01/30 03:39:07;;;;;;;23.02;13.43;;;;;;;6.97;54.78;100898.34;7389158;19;20039;-77
2023/01/30 03:41:33;;;;;;;21.10;12.35;;;;;;;7.13;54.42;100910.38;7390751;19;19998;-76
2023/01/30 03:43:59;;;;;;;21.30;12.50;;;;;;;7.09;54.82;100909.41;7388531;19;20404;-77
2023/01/30 03:46:24;;;;;;;20.60;12.27;;;;;;;7.13;54.49;100904.13;7390002;19;20780;-76
2023/01/30 03:48:50;;;;;;;18.42;11.23;;;;;;;7.11;54.49;100885.47;7388858;19;20343;-76
2023/01/30 03:51:16;;;;;;;20.10;10.98;;;;;;;7.07;54.88;100883.69;7391779;19;20455;-77
2023/01/30 03:53:42;;;;;;;19.08;10.73;;;;;;;7.15;54.83;100883.72;7387833;19;20007;-77
2023/01/30 03:56:07;;;;;;;18.80;10.25;;;;;;;7.29;54.14;100880.84;7390007;19;20022;-77
2023/01/30 03:58:33;;;;;;;17.63;9.77;;;;;;;7.25;54.64;100877.19;7389687;19;20010;-76
2023/01/30 04:00:59;;;;;;;18.15;9.63;;;;;;;7.19;54.89;100886.59;7389767;19;20062;-77
2023/01/30 04:03:25;;;;;;;17.75;9.52;;;;;;;7.28;54.65;100889.31;7387981;19;19994;-78
2023/01/30 04:05:51;;;;;;;19.73;9.57;;;;;;;7.35;54.64;100892.38;7391170;19;19995;-78
2023/01/30 04:08:16;;;;;;;15.68;9.32;;;;;;;7.45;54.52;100891.28;7394734;19;19995;-79
2023/01/30 04:10:42;;;;;;;16.77;9.45;;;;;;;7.54;53.99;100906.44;7398267;19;19994;-77
2023/01/30 04:13:08;;;;;;;16.05;8.52;;;;;;;7.12;55.71;100913.41;7397563;19;20009;-78
2023/01/30 04:15:34;;;;;;;17.50;9.60;;;;;;;7.31;55.61;100911.22;7397975;19;20347;-77
2023/01/30 04:17:59;;;;;;;17.55;10.10;;;;;;;7.51;54.99;100917.16;7397177;19;20399;-77
2023/01/30 04:20:25;;;;;;;18.17;11.00;;;;;;;7.51;55.11;100923.41;7397303;19;19998;-76
2023/01/30 04:22:53;;;;;;;18.77;10.65;;;;;;;7.59;54.94;100919.88;7395947;19;19994;-76
2023/01/30 04:25:19;;;;;;;15.55;7.78;;;;;;;7.33;55.21;100909.00;7398017;19;19999;-78
2023/01/30 04:27:45;;;;;;;12.98;4.78;;;;;;;7.34;54.92;100912.50;7395947;19;20002;-75
2023/01/30 04:30:11;;;;;;;10.43;3.25;;;;;;;7.21;54.91;100906.88;7396480;19;20036;-76
2023/01/30 04:32:37;;;;;;;7.93;2.25;;;;;;;7.17;55.12;100913.25;7396430;19;20410;-76
2023/01/30 04:35:03;;;;;;;7.35;1.80;;;;;;;7.04;54.94;100921.22;7393320;19;19999;-75
2023/01/30 04:37:29;;;;;;;7.25;1.70;;;;;;;7.24;54.34;100919.00;7395100;19;20471;-77
2023/01/30 04:39:54;;;;;;;5.90;1.80;;;;;;;7.36;54.14;100921.94;7396449;19;20018;-72
2023/01/30 04:42:20;;;;;;;8.80;1.50;;;;;;;7.38;54.01;100924.34;7394072;19;19986;-73
2023/01/30 04:44:46;;;;;;;6.72;1.58;;;;;;;7.29;54.02;100924.28;7393483;19;20010;-72
2023/01/30 04:47:12;;;;;;;7.65;1.65;;;;;;;7.15;54.32;100924.44;7393346;19;20002;-72
2023/01/30 04:49:38;;;;;;;6.40;1.30;;;;;;;6.92;54.90;100933.78;7393550;19;20466;-70
2023/01/30 04:52:03;;;;;;;6.10;1.33;;;;;;;6.87;55.05;100931.94;7395514;19;20006;-69
2023/01/30 04:54:29;;;;;;;4.07;1.05;;;;;;;7.00;54.57;100920.22;7394093;19;20003;-70
2023/01/30 04:56:56;;;;;;;5.05;1.10;;;;;;;6.87;54.48;100910.25;7394642;19;20002;-69
2023/01/30 04:59:22;;;;;;;5.03;0.90;;;;;;;6.94;54.31;100910.63;7395279;19;20488;-69
2023/01/30 05:01:48;;;;;;;5.32;1.33;;;;;;;7.09;53.79;100911.31;7393528;19;20470;-69
2023/01/30 05:04:14;;;;;;;8.85;1.45;;;;;;;7.00;53.89;100911.28;7393415;19;19997;-69
2023/01/30 05:06:40;;;;;;;13.32;3.47;;;;;;;7.13;53.71;100896.81;7395221;19;20034;-69
2023/01/30 05:09:06;;;;;;;12.85;3.05;;;;;;;7.07;53.88;100910.84;7391309;19;20414;-69
2023/01/30 05:11:32;;;;;;;12.32;3.42;;;;;;;7.17;53.55;100903.19;7394793;19;20518;-69
2023/01/30 05:13:58;;;;;;;16.33;4.05;;;;;;;7.07;53.87;100900.78;7393488;19;20019;-69
2023/01/30 05:16:30;;;;;;;11.95;2.88;;;;;;;7.06;53.76;100891.03;7394937;19;20424;-69
2023/01/30 05:18:56;;;;;;;16.95;3.47;;;;;;;7.19;53.17;100900.16;7385845;19;20034;-68
2023/01/30 05:21:26;;;;;;;15.25;3.53;;;;;;;7.33;52.91;100895.41;7394552;19;20077;-68
2023/01/30 05:23:53;;;;;;;19.70;3.60;;;;;;;7.42;52.57;100914.44;7395168;19;20011;-68
2023/01/30 05:26:20;;;;;;;17.52;4.70;;;;;;;7.46;52.46;100914.59;7392590;19;20005;-68
2023/01/30 05:28:51;;;;;;;16.83;3.85;;;;;;;7.07;53.08;100913.56;7392147;19;20020;-69
2023/01/30 05:31:17;;;;;;;21.05;4.20;;;;;;;7.13;53.18;100901.41;7394288;19;20003;-68
2023/01/30 05:33:46;;;;;;;20.77;3.75;;;;;;;7.21;53.00;100908.78;7394252;19;20017;-69
2023/01/30 05:36:14;;;;;;;20.52;3.45;;;;;;;7.40;52.58;100914.75;7394268;19;20003;-69
2023/01/30 05:38:42;;;;;;;20.73;4.18;;;;;;;7.53;52.15;100904.06;7392827;19;20012;-69
2023/01/30 05:41:10;;;;;;;18.20;4.20;;;;;;;7.62;52.01;100907.59;7392354;19;20022;-70
2023/01/30 05:43:36;;;;;;;25.02;4.93;;;;;;;7.55;51.96;100901.84;7394137;19;20003;-68
2023/01/30 05:46:04;;;;;;;24.70;4.65;;;;;;;7.47;51.91;100908.06;7393650;19;19998;-69
2023/01/30 05:48:31;;;;;;;21.27;4.25;;;;;;;7.50;51.95;100915.56;7390637;19;20002;-69
2023/01/30 05:50:58;;;;;;;22.63;4.03;;;;;;;7.44;51.84;100895.09;7392438;19;19995;-75
2023/01/30 05:53:28;;;;;;;26.20;4.32;;;;;;;7.47;51.72;100899.91;7393921;19;20009;-73
2023/01/30 05:55:58;;;;;;;23.52;4.25;;;;;;;7.32;51.75;100903.88;7394006;19;20324;-74
2023/01/30 05:58:26;;;;;;;23.10;5.55;;;;;;;7.19;51.74;100897.44;7393021;19;19999;-73
2023/01/30 06:00:52;;;;;;;26.75;5.68;;;;;;;7.05;52.03;100906.50;7391991;19;19999;-74
2023/01/30 06:03:18;;;;;;;23.08;4.97;;;;;;;7.25;51.31;100901.63;7393887;19;20323;-77
2023/01/30 06:05:44;;;;;;;28.67;5.00;;;;;;;7.13;51.24;100914.97;7391634;19;20002;-73
2023/01/30 06:08:10;;;;;;;34.15;5.68;;;;;;;7.13;51.38;100921.25;7391539;19;19998;-72
2023/01/30 06:10:36;;;;;;;24.15;5.10;;;;;;;7.08;51.41;100924.09;7393256;19;19994;-73
2023/01/30 06:13:02;;;;;;;31.13;5.43;;;;;;;7.12;51.46;100926.97;7392110;19;20082;-73
2023/01/30 06:15:27;;;;;;;30.77;5.85;;;;;;;7.16;51.28;100928.75;7391458;19;20015;-72
2023/01/30 06:17:53;;;;;;;24.55;5.00;;;;;;;7.32;50.77;100931.81;7392519;19;20459;-73
2023/01/30 06:20:19;;;;;;;28.65;5.55;;;;;;;7.13;51.15;100914.97;7391325;19;20023;-72
2023/01/30 06:22:47;;;;;;;35.88;6.40;;;;;;;7.20;50.99;100912.63;7392648;19;20006;-73
2023/01/30 06:25:13;;;;;;;26.23;5.10;;;;;;;7.03;51.39;100914.19;7392941;19;20002;-73
2023/01/30 06:27:39;;;;;;;31.45;6.53;;;;;;;7.25;50.79;100914.41;7390077;19;20017;-73
2023/01/30 06:30:05;;;;;;;32.55;5.88;;;;;;;7.27;50.70;100906.75;7389211;19;20002;-73
2023/01/30 06:32:31;;;;;;;25.95;5.47;;;;;;;7.23;50.39;100901.94;7391460;19;20034;-73
2023/01/30 06:34:57;;;;;;;22.45;4.50;;;;;;;7.23;50.50;100915.50;7393254;19;20007;-74
2023/01/30 06:37:23;;;;;;;27.00;4.32;;;;;;;6.93;50.99;100905.50;7391636;19;19994;-74
2023/01/30 06:39:48;;;;;;;27.40;5.38;;;;;;;6.97;50.81;100912.72;7390866;19;20487;-74
2023/01/30 06:42:14;;;;;;;23.98;4.65;;;;;;;7.09;50.24;100911.31;7391852;19;20028;-74
2023/01/30 06:44:40;;;;;;;30.50;5.32;;;;;;;6.97;50.38;100915.41;7392448;19;20398;-74
2023/01/30 06:47:06;;;;;;;30.92;4.72;;;;;;;7.13;50.09;100918.53;7391946;19;20007;-73
2023/01/30 06:49:31;;;;;;;27.73;5.45;;;;;;;7.29;49.49;100926.22;7390262;19;20007;-74
2023/01/30 06:51:57;;;;;;;38.45;5.53;;;;;;;7.17;49.87;100921.41;7392158;19;20005;-74
2023/01/30 06:54:23;;;;;;;21.75;4.40;;;;;;;7.15;49.87;100923.63;7391666;19;20462;-73
2023/01/30 06:56:49;;;;;;;28.02;5.30;;;;;;;7.07;49.77;100927.13;7391206;19;20003;-74
2023/01/30 06:59:14;;;;;;;27.25;4.80;;;;;;;7.10;49.84;100931.94;7390575;19;20013;-73
2023/01/30 07:01:40;;;;;;;26.75;4.32;;;;;;;6.91;49.91;100927.56;7392026;19;20002;-73
2023/01/30 07:04:06;;;;;;;28.83;4.97;;;;;;;6.65;50.29;100932.81;7390526;19;20602;-75
2023/01/30 07:06:32;;;;;;;25.90;4.82;;;;;;;6.78;50.12;100929.22;7392326;19;19998;-75
2023/01/30 07:08:58;;;;;;;25.88;5.03;;;;;;;6.83;49.56;100936.41;7389719;19;20062;-74
2023/01/30 07:11:27;;;;;;;29.70;5.68;;;;;;;6.90;49.29;100947.63;7389741;19;20007;-74
2023/01/30 07:13:53;;;;;;;27.45;4.43;;;;;;;6.83;49.49;100941.84;7390905;19;19997;-81
2023/01/30 07:16:18;;;;;;;25.33;4.80;;;;;;;6.95;49.09;100944.78;7391638;19;20086;-69
2023/01/30 07:18:44;;;;;;;31.95;4.95;;;;;;;7.00;48.94;100947.38;7389468;19;20002;-74
2023/01/30 07:21:10;;;;;;;25.42;4.85;;;;;;;6.87;49.24;100931.94;7391174;19;19994;-71
2023/01/30 07:23:36;;;;;;;26.58;4.68;;;;;;;7.05;48.92;100928.22;7390675;19;20066;-68
2023/01/30 07:26:03;;;;;;;27.55;5.13;;;;;;;6.92;48.87;100934.56;7390832;19;20091;-69
2023/01/30 07:28:29;;;;;;;24.67;4.80;;;;;;;7.04;48.52;100942.09;7388519;19;20638;-87
2023/01/30 07:30:58;;;;;;;24.35;4.30;;;;;;;6.99;48.67;100942.25;7405373;19;19995;-83
2023/01/30 07:33:24;;;;;;;25.08;4.05;;;;;;;7.17;48.40;100946.63;7400848;19;19999;-86
2023/01/30 07:35:50;;;;;;;28.05;5.22;;;;;;;7.01;48.44;100937.31;7396928;19;20338;-78
2023/01/30 07:38:16;;;;;;;26.90;4.75;;;;;;;6.92;48.47;100931.84;7387864;19;20490;-76
2023/01/30 07:40:41;;;;;;;24.30;4.35;;;;;;;7.08;48.18;100934.13;7390956;19;20003;-78
2023/01/30 07:43:12;;;;;;;25.63;4.28;;;;;;;7.23;47.87;100936.44;7394635;19;20029;-77
2023/01/30 07:45:40;;;;;;;25.27;4.43;;;;;;;7.01;48.17;100938.13;7398006;19;20462;-73
2023/01/30 07:48:09;;;;;;;24.02;5.03;;;;;;;6.88;48.48;100933.56;7395856;19;20507;-72
2023/01/30 07:50:35;;;;;;;28.98;5.20;;;;;;;7.19;47.86;100944.38;7396590;19;20798;-72
2023/01/30 07:53:05;;;;;;;21.85;3.88;;;;;;;7.40;47.43;100943.81;7398908;19;20019;-84
2023/01/30 07:55:31;;;;;;;25.27;4.00;;;;;;;7.33;47.75;100938.03;7405962;19;19998;-72
2023/01/30 07:57:57;;;;;;;27.25;4.70;;;;;;;7.31;47.69;100943.81;7398234;19;20017;-77
2023/01/30 08:00:23;;;;;;;29.08;4.60;;;;;;;7.23;47.84;100931.00;7394529;19;20010;-75
2023/01/30 08:02:48;;;;;;;26.63;4.05;;;;;;;7.26;47.86;100943.94;7398074;19;20487;-75
2023/01/30 08:05:14;;;;;;;21.73;3.80;;;;;;;7.24;47.81;100946.16;7395425;19;20006;-78
2023/01/30 08:07:40;;;;;;;30.17;5.53;;;;;;;7.41;47.61;100965.25;7396034;19;20003;-77
2023/01/30 08:10:07;;;;;;;25.30;4.20;;;;;;;7.27;48.04;100961.03;7395616;19;20025;-75
2023/01/30 08:12:32;;;;;;;26.77;4.90;;;;;;;7.38;47.94;100965.88;7397510;19;20019;-78
2023/01/30 08:14:58;;;;;;;27.95;5.30;;;;;;;7.30;48.33;100963.13;7396446;19;20002;-74
2023/01/30 08:17:24;;;;;;;30.52;5.25;;;;;;;7.25;48.28;100961.34;7394922;19;20003;-76
2023/01/30 08:19:50;;;;;;;23.27;4.68;;;;;;;7.46;47.93;100956.13;7395690;19;20014;-81
2023/01/30 08:22:16;;;;;;;21.02;4.40;;;;;;;7.33;48.03;100957.88;7398679;19;20332;-81
2023/01/30 08:24:42;;;;;;;27.02;4.63;;;;;;;7.36;47.97;100961.84;7399299;19;20062;-74
2023/01/30 08:27:08;;;;;;;28.30;4.50;;;;;;;7.34;47.99;100951.31;7396151;19;20003;-76
2023/01/30 08:29:34;;;;;;;31.38;5.35;;;;;;;7.45;47.56;100961.91;7394489;19;20030;-72
2023/01/30 08:32:00;;;;;;;27.92;5.68;;;;;;;7.47;47.51;100937.94;7397333;19;20407;-74
2023/01/30 08:34:26;;;;;;;27.70;4.35;;;;;;;7.22;48.02;100948.41;7399381;19;20003;-79
2023/01/30 08:36:52;;;;;;;32.47;5.40;;;;;;;7.08;48.33;100955.84;7398009;19;20002;-75
2023/01/30 08:39:18;;;;;;;25.88;4.65;;;;;;;7.33;47.87;100955.16;7397905;19;20347;-70
2023/01/30 08:41:44;;;;;;;26.30;5.05;;;;;;;7.35;48.08;100952.91;7396777;19;19995;-72
2023/01/30 08:44:11;;;;;;;29.25;6.22;;;;;;;7.29;48.13;100937.88;7394208;19;19999;-78
2023/01/30 08:46:38;;;;;;;28.73;4.88;;;;;;;7.34;48.41;100940.44;7396447;19;20002;-75
2023/01/30 08:49:04;;;;;;;32.88;5.85;;;;;;;7.43;48.38;100954.06;7392669;19;20003;-71
2023/01/30 08:51:30;;;;;;;25.42;4.82;;;;;;;7.30;48.40;100960.41;7398227;19;20003;-78
2023/01/30 08:53:56;;;;;;;29.08;4.85;;;;;;;7.35;48.27;100957.56;7395030;19;19994;-75
2023/01/30 08:56:22;;;;;;;31.55;4.88;;;;;;;7.38;48.17;100956.94;7401823;19;20018;-80
2023/01/30 08:58:48;;;;;;;24.10;5.22;;;;;;;7.28;48.32;100955.31;7398955;19;20006;-77
2023/01/30 09:01:14;;;;;;;32.10;5.45;;;;;;;7.27;48.72;100945.53;7397558;19;19999;-78
2023/01/30 09:03:41;;;;;;;26.85;5.32;;;;;;;7.38;48.66;100949.56;7397011;19;19994;-76
2023/01/30 09:06:07;;;;;;;25.58;4.57;;;;;;;7.31;48.69;100935.66;7395168;19;20002;-77
2023/01/30 09:08:33;;;;;;;32.85;4.70;;;;;;;7.45;48.05;100951.03;7399428;19;19999;-79
2023/01/30 09:11:01;;;;;;;25.95;5.10;;;;;;;7.20;48.68;100951.44;7398522;19;19998;-75
2023/01/30 09:13:27;;;;;;;25.88;4.72;;;;;;;7.10;49.04;100940.84;7395932;19;20106;-74
2023/01/30 09:15:53;;;;;;;27.48;5.20;;;;;;;7.45;47.88;100940.16;7393519;19;20351;-74
2023/01/30 09:18:19;;;;;;;25.45;4.95;;;;;;;7.56;47.85;100952.31;7393939;19;19999;-72
2023/01/30 09:20:45;;;;;;;26.75;5.40;;;;;;;7.81;47.35;100944.53;7392766;19;20130;-72
2023/01/30 09:23:10;;;;;;;25.13;4.65;;;;;;;7.70;47.46;100942.13;7394850;19;20010;-71
2023/01/30 09:25:36;;;;;;;33.35;5.40;;;;;;;7.88;46.79;100933.97;7393130;19;20402;-72
2023/01/30 09:28:02;;;;;;;28.13;4.63;;;;;;;7.60;47.46;100945.16;7393988;19;20006;-73
2023/01/30 09:30:29;;;;;;;22.67;4.53;;;;;;;7.74;46.99;100953.94;7392263;19;20273;-72
2023/01/30 09:32:54;;;;;;;24.73;4.20;;;;;;;7.47;47.57;100954.22;7394072;19;20490;-72
2023/01/30 09:35:20;;;;;;;22.55;4.78;;;;;;;7.65;47.33;100947.72;7394302;19;19999;-73
2023/01/30 09:37:52;;;;;;;28.35;4.25;;;;;;;7.75;47.05;100960.97;7393343;19;20010;-70
2023/01/30 09:40:30;;;;;;;24.70;5.00;;;;;;;7.62;47.39;100958.41;7390520;19;20442;-73
2023/01/30 09:43:22;;;;;;;24.33;5.20;;;;;;;7.64;47.34;100956.19;7394122;19;19995;-75
2023/01/30 09:45:54;;;;;;;31.65;4.82;;;;;;;7.73;47.29;100951.53;7393515;19;19994;-73
2023/01/30 09:48:30;;;;;;;17.83;3.50;;;;;;;7.74;46.81;100931.41;7392310;19;20454;-72
2023/01/30 09:51:10;;;;;;;18.08;3.40;;;;;;;7.53;46.36;100936.66;7394207;19;20010;-74
2023/01/30 09:53:59;;;;;;;23.30;3.63;;;;;;;7.51;46.83;100952.47;7393746;19;20021;-73
2023/01/30 09:56:25;;;;;;;25.65;3.58;;;;;;;7.58;46.99;100960.97;7392260;19;20501;-80
2023/01/30 09:58:54;;;;;;;17.35;3.08;;;;;;;7.75;46.84;100971.84;7394192;19;19999;-82
2023/01/30 10:01:44;;;;;;;20.60;3.70;;;;;;;7.35;47.23;100958.34;7403008;19;20015;-83
2023/01/30 10:04:13;;;;;;;21.33;4.55;;;;;;;7.63;46.87;100970.88;7393369;19;20368;-74
2023/01/30 10:06:53;;;;;;;20.83;3.80;;;;;;;7.69;46.61;100975.03;7393041;19;20050;-74
2023/01/30 10:09:35;;;;;;;22.70;4.47;;;;;;;7.58;47.16;100958.25;7391380;19;20030;-79
2023/01/30 10:12:20;;;;;;;23.55;4.82;;;;;;;7.74;46.67;100937.63;7393394;19;20006;-79
2023/01/30 10:15:13;;;;;;;22.58;4.30;;;;;;;7.56;46.90;100947.69;7395852;19;20066;-74
2023/01/30 10:18:00;;;;;;;16.48;3.50;;;;;;;7.66;46.56;100946.56;7392566;19;20003;-74
2023/01/30 10:21:03;;;;;;;20.77;4.75;;;;;;;7.90;45.77;100937.19;7388757;19;20017;-75
2023/01/30 10:24:03;;;;;;;22.30;5.72;;;;;;;7.70;46.40;100950.28;7392587;19;20463;-74
2023/01/30 10:26:30;;;;;;;21.77;5.28;;;;;;;7.96;46.49;100944.03;7392476;19;20006;-74
2023/01/30 10:29:04;;;;;;;26.13;4.93;;;;;;;8.03;46.24;100932.69;7391351;19;20027;-75
2023/01/30 10:31:40;;;;;;;25.50;4.47;;;;;;;7.94;46.24;100924.53;7392156;19;20487;-78
2023/01/30 10:34:13;;;;;;;27.63;4.63;;;;;;;7.77;47.15;100926.13;7393029;19;20344;-78
2023/01/30 10:36:47;;;;;;;20.60;4.05;;;;;;;7.95;47.08;100923.44;7393407;19;20162;-76
2023/01/30 10:40:01;;;;;;;19.55;3.78;;;;;;;7.67;47.81;100918.31;7390772;19;20002;-77
2023/01/30 10:42:37;;;;;;;19.73;4.10;;;;;;;7.52;48.13;100918.75;7391022;19;20001;-76
2023/01/30 10:45:12;;;;;;;20.23;4.70;;;;;;;7.52;48.29;100914.13;7392203;19;20001;-72
2023/01/30 10:47:58;;;;;;;21.88;4.53;;;;;;;7.96;47.23;100908.72;7390848;19;19998;-72
2023/01/30 10:50:47;;;;;;;26.20;4.22;;;;;;;8.12;46.87;100907.09;7388592;19;20410;-78
2023/01/30 10:53:26;;;;;;;25.48;4.25;;;;;;;7.57;48.33;100911.25;7392415;19;20002;-76
2023/01/30 10:56:27;;;;;;;19.05;3.83;;;;;;;7.27;49.14;100909.47;7390760;19;20470;-76
2023/01/30 10:59:31;;;;;;;20.73;4.18;;;;;;;7.22;49.77;100916.63;7390589;19;19995;-78
2023/01/30 11:02:21;;;;;;;18.77;4.80;;;;;;;7.64;49.25;100899.91;7394124;19;20026;-72
2023/01/30 11:04:56;;;;;;;21.05;3.30;;;;;;;7.46;49.32;100920.81;7396126;19;20325;-77
2023/01/30 11:07:22;;;;;;;20.85;4.05;;;;;;;6.98;50.26;100927.88;7392661;19;20019;-72
2023/01/30 11:09:48;;;;;;;18.45;4.63;;;;;;;7.27;50.22;100923.81;7392355;19;19999;-72
2023/01/30 11:12:14;;;;;;;20.90;3.15;;;;;;;7.20;50.15;100931.63;7394282;19;19991;-73
2023/01/30 11:15:00;;;;;;;21.13;4.55;;;;;;;7.13;51.08;100947.56;7393268;19;19994;-68
2023/01/30 11:17:36;;;;;;;15.32;3.20;;;;;;;7.29;50.60;100943.31;7391304;19;20090;-75
2023/01/30 11:20:18;;;;;;;17.90;3.60;;;;;;;7.27;50.51;100944.75;7387895;19;20010;-78
2023/01/30 11:22:49;;;;;;;17.73;3.42;;;;;;;7.40;50.17;100933.75;7393345;19;20003;-79
2023/01/30 11:25:21;;;;;;;24.25;4.15;;;;;;;7.54;49.78;100932.81;7391984;19;20070;-78
2023/01/30 11:28:02;;;;;;;19.35;4.35;;;;;;;7.68;49.53;100930.78;7392901;19;20009;-78
2023/01/30 11:30:34;;;;;;;26.52;4.88;;;;;;;7.89;49.19;100922.00;7391787;19;20079;-73
2023/01/30 11:33:16;;;;;;;32.72;4.38;;;;;;;8.01;48.67;100927.56;7388886;19;20006;-73
2023/01/30 11:35:53;;;;;;;23.77;4.75;;;;;;;7.90;49.01;100929.03;7390466;19;20002;-72
2023/01/30 11:38:25;;;;;;;26.80;4.93;;;;;;;8.14;47.92;100945.63;7387619;19;20347;-73
2023/01/30 11:41:09;;;;;;;25.02;5.03;;;;;;;8.28;47.49;100931.06;7388299;19;20021;-73
2023/01/30 11:43:41;;;;;;;25.23;4.65;;;;;;;8.27;47.57;100905.78;7390511;19;20010;-71
2023/01/30 11:46:09;;;;;;;23.05;4.97;;;;;;;8.05;47.70;100916.88;7390133;19;20003;-72